Time;durP1;ratioP1;P1;durP2;ratioP2;P2;SDS_P1;SDS_P2;PMS_P1;PMS_P2;Temp;Humidity;BMP_temperature;BMP_pressure;BME280_temperature;BME280_humidity;BME280_pressure;Samples;Min_cycle;Max_cycle;Signal;HPM_P1;HPM_P2
2023/12/12 00:01:26;;;;;;;5.70;3.47;;;;;;;;;;5063506;28;20451;-80
2023/12/12 00:03:54;;;;;;;8.07;3.03;;;;;;;;;;5062493;28;20480;-78
2023/12/12 00:06:24;;;;;;;5.43;3.07;;;;;;;;;;5065776;28;20477;-78
2023/12/12 00:08:52;;;;;;;7.20;4.07;;;;;;;;;;5065230;28;20454;-79
2023/12/12 00:11:20;;;;;;;12.00;4.27;;;;;;;;;;5067993;28;20491;-79
2023/12/12 00:13:48;;;;;;;11.67;3.93;;;;;;;;;;5067079;28;20460;-79
2023/12/12 00:16:16;;;;;;;12.90;4.27;;;;;;;;;;5064737;28;20532;-79
2023/12/12 00:18:50;;;;;;;7.70;4.00;;;;;;;;;;5066835;28;20462;-78
2023/12/12 00:21:17;;;;;;;10.07;4.90;;;;;;;;;;5063291;28;20452;-80
2023/12/12 00:23:47;;;;;;;6.00;4.00;;;;;;;;;;5064979;28;20664;-80
2023/12/12 00:26:15;;;;;;;9.53;4.37;;;;;;;;;;5066306;28;20498;-78
2023/12/12 00:28:44;;;;;;;6.80;3.93;;;;;;;;;;5067283;28;20898;-81
2023/12/12 00:31:12;;;;;;;7.93;4.20;;;;;;;;;;5068563;28;20490;-79
2023/12/12 00:33:41;;;;;;;12.43;4.53;;;;;;;;;;5070946;28;20448;-79
2023/12/12 00:36:11;;;;;;;6.00;4.07;;;;;;;;;;5053230;28;20510;-79
2023/12/12 00:38:40;;;;;;;5.93;3.90;;;;;;;;;;5069445;28;20459;-78
2023/12/12 00:41:14;;;;;;;6.60;4.13;;;;;;;;;;5068942;28;20455;-78
2023/12/12 00:43:45;;;;;;;7.10;3.87;;;;;;;;;;5068583;28;20461;-78
2023/12/12 00:46:15;;;;;;;9.83;4.30;;;;;;;;;;5071546;28;20502;-79
2023/12/12 00:48:44;;;;;;;5.37;3.80;;;;;;;;;;5069143;28;20483;-79
2023/12/12 00:51:12;;;;;;;5.23;3.57;;;;;;;;;;5063530;28;20510;-79
2023/12/12 00:53:40;;;;;;;9.80;4.00;;;;;;;;;;5062328;28;20480;-79
2023/12/12 00:56:08;;;;;;;4.33;2.80;;;;;;;;;;5064458;28;20455;-79
2023/12/12 00:58:38;;;;;;;8.70;4.10;;;;;;;;;;5065272;28;20459;-78
2023/12/12 01:01:06;;;;;;;7.03;3.70;;;;;;;;;;5065915;28;20463;-80
2023/12/12 01:03:34;;;;;;;5.90;3.23;;;;;;;;;;5065668;28;20448;-78
2023/12/12 01:06:02;;;;;;;7.80;3.73;;;;;;;;;;5064574;28;20455;-78
2023/12/12 01:08:30;;;;;;;5.27;2.70;;;;;;;;;;5065901;28;20619;-79
2023/12/12 01:10:58;;;;;;;5.70;3.40;;;;;;;;;;5065809;28;20472;-78
2023/12/12 01:13:26;;;;;;;13.13;3.83;;;;;;;;;;5066739;28;20488;-78
2023/12/12 01:15:56;;;;;;;10.13;3.30;;;;;;;;;;5067485;28;20480;-78
2023/12/12 01:18:24;;;;;;;11.70;3.27;;;;;;;;;;5068246;28;20443;-79
2023/12/12 01:20:52;;;;;;;9.97;3.87;;;;;;;;;;5067557;28;20451;-79
2023/12/12 01:23:20;;;;;;;10.30;3.37;;;;;;;;;;5066704;28;20470;-79
2023/12/12 01:25:47;;;;;;;9.83;3.63;;;;;;;;;;5067047;28;20537;-80
2023/12/12 01:28:15;;;;;;;5.77;3.27;;;;;;;;;;5067772;28;20499;-78
2023/12/12 01:30:43;;;;;;;11.27;3.77;;;;;;;;;;5066982;28;20452;-78
2023/12/12 01:33:12;;;;;;;9.50;3.97;;;;;;;;;;5070765;28;20498;-78
2023/12/12 01:35:40;;;;;;;7.20;4.27;;;;;;;;;;5072445;28;20467;-78
2023/12/12 01:38:08;;;;;;;9.87;3.70;;;;;;;;;;5071607;28;20536;-78
2023/12/12 01:40:36;;;;;;;11.63;4.20;;;;;;;;;;5071315;28;20442;-79
2023/12/12 01:43:07;;;;;;;8.03;4.17;;;;;;;;;;5070191;28;20504;-79
2023/12/12 01:45:34;;;;;;;11.53;3.53;;;;;;;;;;5068879;28;20491;-78
2023/12/12 01:48:02;;;;;;;8.33;3.90;;;;;;;;;;5070558;28;20465;-79
2023/12/12 01:50:31;;;;;;;6.53;3.60;;;;;;;;;;5069747;28;20487;-80
2023/12/12 01:52:59;;;;;;;9.17;4.67;;;;;;;;;;5068146;28;20493;-80
2023/12/12 01:55:27;;;;;;;6.93;3.80;;;;;;;;;;5068092;28;20524;-80
2023/12/12 01:57:55;;;;;;;5.80;4.07;;;;;;;;;;5068166;28;20443;-80
2023/12/12 02:00:28;;;;;;;5.80;4.10;;;;;;;;;;5068739;28;20455;-79
2023/12/12 02:02:56;;;;;;;7.37;4.13;;;;;;;;;;5070219;28;20479;-79
2023/12/12 02:05:24;;;;;;;10.37;4.87;;;;;;;;;;5071044;28;20455;-80
2023/12/12 02:07:54;;;;;;;8.13;3.67;;;;;;;;;;5073084;28;20454;-79
2023/12/12 02:10:22;;;;;;;6.47;4.27;;;;;;;;;;5068445;28;20455;-80
2023/12/12 02:12:50;;;;;;;7.77;4.67;;;;;;;;;;5067605;28;20471;-80
2023/12/12 02:15:18;;;;;;;6.50;4.20;;;;;;;;;;5065996;28;20447;-80
2023/12/12 02:17:46;;;;;;;9.87;4.83;;;;;;;;;;5065952;28;20471;-79
2023/12/12 02:20:17;;;;;;;7.00;3.97;;;;;;;;;;5066211;28;20463;-79
2023/12/12 02:22:46;;;;;;;7.27;4.73;;;;;;;;;;5065664;28;20487;-79
2023/12/12 02:25:14;;;;;;;10.00;4.40;;;;;;;;;;5065164;28;20458;-79
2023/12/12 02:27:41;;;;;;;10.20;4.43;;;;;;;;;;5066429;28;20452;-78
2023/12/12 02:30:10;;;;;;;9.97;4.73;;;;;;;;;;5065868;28;20896;-79
2023/12/12 02:32:38;;;;;;;7.40;4.80;;;;;;;;;;5067486;28;20904;-79
2023/12/12 02:35:06;;;;;;;6.47;4.10;;;;;;;;;;5065902;28;20440;-79
2023/12/12 02:37:33;;;;;;;6.57;4.57;;;;;;;;;;5064997;28;20461;-78
2023/12/12 02:40:05;;;;;;;6.27;4.40;;;;;;;;;;5063677;28;20716;-79
2023/12/12 02:42:33;;;;;;;6.30;4.60;;;;;;;;;;5063041;28;20830;-80
2023/12/12 02:45:08;;;;;;;8.60;4.07;;;;;;;;;;5062711;28;20510;-79
2023/12/12 02:47:36;;;;;;;6.30;3.77;;;;;;;;;;5063981;28;20459;-78
2023/12/12 02:50:10;;;;;;;6.30;3.50;;;;;;;;;;5064698;28;20459;-78
2023/12/12 02:52:37;;;;;;;5.77;3.20;;;;;;;;;;5064883;28;21161;-79
2023/12/12 02:55:07;;;;;;;5.30;3.40;;;;;;;;;;5063798;28;20532;-80
2023/12/12 02:57:35;;;;;;;9.43;3.40;;;;;;;;;;5063595;28;20471;-79
2023/12/12 03:00:11;;;;;;;6.77;3.00;;;;;;;;;;5064368;28;20443;-79
2023/12/12 03:02:38;;;;;;;5.10;3.50;;;;;;;;;;5063539;28;20459;-79
2023/12/12 03:05:06;;;;;;;5.90;2.70;;;;;;;;;;5064671;28;20447;-79
2023/12/12 03:07:34;;;;;;;5.67;2.83;;;;;;;;;;5066290;28;20471;-79
2023/12/12 03:10:08;;;;;;;5.13;3.03;;;;;;;;;;5067345;28;20528;-79
2023/12/12 03:12:38;;;;;;;7.57;2.57;;;;;;;;;;5066872;28;20544;-80
2023/12/12 03:15:06;;;;;;;9.20;4.40;;;;;;;;;;5066152;28;20526;-79
2023/12/12 03:17:37;;;;;;;7.40;3.97;;;;;;;;;;5065097;28;20918;-77
2023/12/12 03:20:08;;;;;;;6.87;3.80;;;;;;;;;;5068451;28;20493;-79
2023/12/12 03:22:36;;;;;;;5.80;3.07;;;;;;;;;;5068155;28;20447;-79
2023/12/12 03:25:04;;;;;;;7.97;3.60;;;;;;;;;;5070610;28;20460;-79
2023/12/12 03:27:31;;;;;;;6.10;3.90;;;;;;;;;;5070307;28;20486;-79
2023/12/12 03:30:01;;;;;;;9.13;3.90;;;;;;;;;;5068904;28;20446;-80
2023/12/12 03:32:30;;;;;;;7.00;3.57;;;;;;;;;;5064974;28;20558;-79
2023/12/12 03:34:58;;;;;;;8.10;3.57;;;;;;;;;;5063392;28;20527;-81
2023/12/12 03:37:26;;;;;;;6.37;3.70;;;;;;;;;;5064270;28;20476;-80
2023/12/12 03:39:54;;;;;;;7.17;4.30;;;;;;;;;;5064697;28;20461;-79
2023/12/12 03:42:22;;;;;;;9.70;5.40;;;;;;;;;;5065193;28;20447;-79
2023/12/12 03:44:49;;;;;;;9.73;5.17;;;;;;;;;;5062595;28;20558;-79
2023/12/12 03:47:18;;;;;;;17.20;9.00;;;;;;;;;;5062709;28;20440;-78
2023/12/12 03:49:46;;;;;;;18.57;11.03;;;;;;;;;;5062676;28;20519;-80
2023/12/12 03:52:14;;;;;;;24.17;12.77;;;;;;;;;;5065193;28;20492;-78
2023/12/12 03:54:41;;;;;;;26.17;12.67;;;;;;;;;;5064598;28;20447;-78
2023/12/12 03:57:09;;;;;;;26.00;12.33;;;;;;;;;;5063030;28;20471;-78
2023/12/12 03:59:37;;;;;;;29.03;13.50;;;;;;;;;;5064584;28;20557;-78
2023/12/12 04:02:05;;;;;;;25.10;13.00;;;;;;;;;;5064591;28;20463;-79
2023/12/12 04:04:35;;;;;;;27.60;14.30;;;;;;;;;;5066870;28;20451;-79
2023/12/12 04:07:03;;;;;;;28.57;12.97;;;;;;;;;;5069838;28;20462;-78
2023/12/12 04:09:31;;;;;;;27.00;13.13;;;;;;;;;;5068547;28;20461;-78
2023/12/12 04:12:00;;;;;;;29.57;11.43;;;;;;;;;;5069014;28;20460;-78
2023/12/12 04:14:27;;;;;;;21.77;12.23;;;;;;;;;;5067811;28;20479;-79
2023/12/12 04:16:55;;;;;;;28.60;13.23;;;;;;;;;;5066730;28;20453;-79
2023/12/12 04:19:23;;;;;;;30.57;13.90;;;;;;;;;;5066299;28;20758;-79
2023/12/12 04:21:51;;;;;;;28.10;13.83;;;;;;;;;;5065853;28;20461;-78
2023/12/12 04:24:19;;;;;;;35.50;12.53;;;;;;;;;;5064289;28;20459;-79
2023/12/12 04:26:47;;;;;;;27.07;12.57;;;;;;;;;;5064511;28;20523;-78
2023/12/12 04:29:14;;;;;;;27.50;14.70;;;;;;;;;;5065188;28;20440;-79
2023/12/12 04:31:42;;;;;;;29.93;12.30;;;;;;;;;;5064895;28;20442;-79
2023/12/12 04:34:11;;;;;;;26.80;11.70;;;;;;;;;;5063791;28;20586;-80
2023/12/12 04:36:38;;;;;;;25.43;11.93;;;;;;;;;;5065574;28;20757;-80
2023/12/12 04:39:08;;;;;;;34.10;14.00;;;;;;;;;;5063151;28;20461;-79
2023/12/12 04:41:40;;;;;;;29.53;12.80;;;;;;;;;;5064404;28;20466;-79
2023/12/12 04:44:10;;;;;;;29.87;12.17;;;;;;;;;;5062618;28;20530;-80
2023/12/12 04:46:37;;;;;;;33.40;13.10;;;;;;;;;;5062153;28;20575;-79
2023/12/12 04:49:05;;;;;;;33.53;13.63;;;;;;;;;;5061524;28;20467;-80
2023/12/12 04:51:32;;;;;;;24.70;11.07;;;;;;;;;;5066279;28;20478;-80
2023/12/12 04:54:00;;;;;;;31.70;12.83;;;;;;;;;;5065630;28;20488;-80
2023/12/12 04:56:29;;;;;;;30.70;13.60;;;;;;;;;;5059448;28;20431;-80
2023/12/12 04:58:57;;;;;;;28.90;12.40;;;;;;;;;;5059945;28;20472;-80
2023/12/12 05:01:24;;;;;;;29.33;11.97;;;;;;;;;;5062249;28;20470;-79
2023/12/12 05:03:52;;;;;;;30.37;14.20;;;;;;;;;;5061587;28;20466;-81
2023/12/12 05:06:20;;;;;;;29.97;12.03;;;;;;;;;;5061052;28;20497;-79
2023/12/12 05:08:47;;;;;;;32.17;13.87;;;;;;;;;;5064232;28;20955;-80
2023/12/12 05:11:14;;;;;;;29.87;14.10;;;;;;;;;;5065772;28;20684;-80
2023/12/12 05:13:43;;;;;;;27.03;12.23;;;;;;;;;;5063842;28;20490;-81
2023/12/12 05:16:11;;;;;;;23.87;12.40;;;;;;;;;;5063537;28;20828;-82
2023/12/12 05:18:39;;;;;;;26.07;11.73;;;;;;;;;;5063489;28;20957;-80
2023/12/12 05:21:06;;;;;;;27.37;13.40;;;;;;;;;;5062762;28;20447;-80
2023/12/12 05:23:34;;;;;;;28.00;11.97;;;;;;;;;;5063513;28;20518;-79
2023/12/12 05:26:02;;;;;;;29.13;12.10;;;;;;;;;;5062971;28;20533;-78
2023/12/12 05:28:30;;;;;;;24.43;12.37;;;;;;;;;;5060234;28;20448;-79
2023/12/12 05:30:58;;;;;;;27.63;12.30;;;;;;;;;;5063628;28;20456;-79
2023/12/12 05:33:26;;;;;;;28.10;14.40;;;;;;;;;;5064074;28;20591;-78
2023/12/12 05:35:53;;;;;;;33.13;13.90;;;;;;;;;;5064429;28;20705;-78
2023/12/12 05:38:21;;;;;;;32.77;14.90;;;;;;;;;;5063551;28;20476;-80
2023/12/12 05:40:49;;;;;;;32.27;12.87;;;;;;;;;;5065226;28;20465;-80
2023/12/12 05:43:16;;;;;;;33.10;13.73;;;;;;;;;;5065643;28;20452;-80
2023/12/12 05:45:43;;;;;;;29.67;14.43;;;;;;;;;;5065099;28;20553;-80
2023/12/12 05:48:12;;;;;;;31.20;14.40;;;;;;;;;;5064617;28;20494;-79
2023/12/12 05:50:40;;;;;;;32.50;13.77;;;;;;;;;;5063598;28;20452;-79
2023/12/12 05:53:08;;;;;;;28.17;14.00;;;;;;;;;;5060913;28;20488;-79
2023/12/12 05:55:36;;;;;;;35.33;12.30;;;;;;;;;;5062099;28;20485;-79
2023/12/12 05:58:04;;;;;;;27.93;12.50;;;;;;;;;;5060176;28;20561;-79
2023/12/12 06:00:32;;;;;;;28.20;12.37;;;;;;;;;;5061649;28;20483;-79
2023/12/12 06:02:59;;;;;;;32.07;14.03;;;;;;;;;;5060721;28;20468;-79
2023/12/12 06:05:29;;;;;;;37.50;14.43;;;;;;;;;;5059915;28;20758;-79
2023/12/12 06:07:56;;;;;;;34.17;13.70;;;;;;;;;;5060045;28;20460;-79
2023/12/12 06:10:24;;;;;;;31.53;14.60;;;;;;;;;;5062708;28;20465;-81
2023/12/12 06:12:51;;;;;;;30.80;14.03;;;;;;;;;;5063461;28;20759;-79
2023/12/12 06:15:20;;;;;;;33.90;14.13;;;;;;;;;;5067850;28;20450;-80
2023/12/12 06:17:47;;;;;;;33.20;14.20;;;;;;;;;;5064026;28;20886;-80
2023/12/12 06:20:18;;;;;;;30.80;14.17;;;;;;;;;;5057434;28;20915;-79
2023/12/12 06:22:47;;;;;;;28.73;14.17;;;;;;;;;;5059023;28;20989;-79
2023/12/12 06:25:15;;;;;;;31.37;13.27;;;;;;;;;;5058487;28;20451;-80
2023/12/12 06:27:42;;;;;;;34.20;12.10;;;;;;;;;;5061455;28;20460;-79
2023/12/12 06:30:11;;;;;;;24.87;12.63;;;;;;;;;;5062762;28;20452;-78
2023/12/12 06:32:38;;;;;;;32.10;14.00;;;;;;;;;;5062766;28;20512;-80
2023/12/12 06:35:07;;;;;;;30.57;11.90;;;;;;;;;;5060748;28;20559;-78
2023/12/12 06:37:34;;;;;;;35.17;13.30;;;;;;;;;;5056952;28;20899;-78
2023/12/12 06:40:12;;;;;;;26.87;11.70;;;;;;;;;;5055366;28;20468;-79
2023/12/12 06:42:42;;;;;;;26.93;10.60;;;;;;;;;;5056528;28;20460;-78
2023/12/12 06:45:11;;;;;;;24.43;10.97;;;;;;;;;;5056200;28;20483;-78
2023/12/12 06:47:38;;;;;;;32.77;11.43;;;;;;;;;;5056435;28;20462;-80
2023/12/12 06:50:10;;;;;;;29.77;13.00;;;;;;;;;;5057483;28;21022;-80
2023/12/12 06:52:38;;;;;;;26.13;11.10;;;;;;;;;;5055210;28;20835;-81
2023/12/12 06:55:07;;;;;;;24.43;10.30;;;;;;;;;;5055287;28;20813;-80
2023/12/12 06:57:35;;;;;;;29.67;11.70;;;;;;;;;;5056041;28;20459;-79
2023/12/12 07:00:07;;;;;;;29.87;12.30;;;;;;;;;;5055690;28;20557;-77
2023/12/12 07:02:34;;;;;;;24.77;11.30;;;;;;;;;;5055708;28;20455;-78
2023/12/12 07:05:04;;;;;;;27.00;11.70;;;;;;;;;;5057969;28;20460;-77
2023/12/12 07:07:32;;;;;;;20.80;9.77;;;;;;;;;;5059778;28;20766;-78
2023/12/12 07:10:00;;;;;;;27.53;10.73;;;;;;;;;;5058530;28;20496;-78
2023/12/12 07:12:29;;;;;;;25.70;11.47;;;;;;;;;;5058827;28;20605;-81
2023/12/12 07:14:56;;;;;;;23.53;10.17;;;;;;;;;;5056316;28;20775;-80
2023/12/12 07:17:24;;;;;;;25.60;10.37;;;;;;;;;;5056954;28;20462;-79
2023/12/12 07:19:52;;;;;;;23.27;9.30;;;;;;;;;;5056025;28;20519;-79
2023/12/12 07:22:21;;;;;;;24.30;9.53;;;;;;;;;;5053598;28;20534;-79
2023/12/12 07:24:54;;;;;;;18.77;9.00;;;;;;;;;;5055149;28;20584;-80
2023/12/12 07:27:27;;;;;;;19.10;9.07;;;;;;;;;;5058488;28;20555;-81
2023/12/12 07:29:57;;;;;;;25.97;9.40;;;;;;;;;;5059594;28;20904;-80
2023/12/12 07:32:26;;;;;;;23.43;9.47;;;;;;;;;;5057383;28;20475;-80
2023/12/12 07:34:54;;;;;;;19.60;9.60;;;;;;;;;;5056165;28;20485;-80
2023/12/12 07:37:22;;;;;;;23.83;10.40;;;;;;;;;;5056010;28;20483;-80
2023/12/12 07:39:49;;;;;;;21.67;10.33;;;;;;;;;;5056780;28;20521;-80
2023/12/12 07:42:17;;;;;;;26.80;11.93;;;;;;;;;;5061116;28;20513;-79
2023/12/12 07:44:46;;;;;;;22.33;11.57;;;;;;;;;;5067844;28;20469;-80
2023/12/12 07:47:15;;;;;;;28.00;11.23;;;;;;;;;;5067616;28;20547;-79
2023/12/12 07:49:42;;;;;;;28.63;12.03;;;;;;;;;;5066674;28;20760;-80
2023/12/12 07:52:10;;;;;;;28.90;12.43;;;;;;;;;;5064105;28;20443;-80
2023/12/12 07:54:38;;;;;;;24.70;10.23;;;;;;;;;;5061133;28;20480;-79
2023/12/12 07:57:06;;;;;;;27.03;10.97;;;;;;;;;;5063633;28;20542;-78
2023/12/12 07:59:34;;;;;;;25.20;10.30;;;;;;;;;;5061930;28;20645;-79
2023/12/12 08:02:02;;;;;;;26.20;9.37;;;;;;;;;;5066542;28;20443;-79
2023/12/12 08:04:32;;;;;;;27.23;10.40;;;;;;;;;;5067674;28;20450;-78
2023/12/12 08:06:59;;;;;;;22.00;10.00;;;;;;;;;;5068109;28;20510;-80
2023/12/12 08:09:28;;;;;;;21.30;9.53;;;;;;;;;;5067376;28;20485;-79
2023/12/12 08:11:57;;;;;;;28.97;13.10;;;;;;;;;;5064049;28;20466;-79
2023/12/12 08:14:24;;;;;;;26.40;10.87;;;;;;;;;;5064170;28;20547;-80
2023/12/12 08:16:57;;;;;;;23.77;10.80;;;;;;;;;;5063506;28;20471;-80
2023/12/12 08:19:25;;;;;;;23.30;10.30;;;;;;;;;;5061524;28;20455;-80
2023/12/12 08:21:54;;;;;;;24.60;10.57;;;;;;;;;;5062962;28;20497;-80
2023/12/12 08:24:23;;;;;;;19.30;9.37;;;;;;;;;;5061004;28;20497;-81
2023/12/12 08:26:58;;;;;;;23.10;9.20;;;;;;;;;;5059262;28;20452;-79
2023/12/12 08:29:31;;;;;;;24.97;10.43;;;;;;;;;;5063500;28;20875;-80
2023/12/12 08:32:08;;;;;;;23.30;10.40;;;;;;;;;;5056475;28;20791;-77
2023/12/12 08:34:36;;;;;;;27.53;11.33;;;;;;;;;;5058621;28;20567;-80
2023/12/12 08:37:05;;;;;;;28.27;12.80;;;;;;;;;;5058270;28;21032;-78
2023/12/12 08:39:34;;;;;;;24.83;10.43;;;;;;;;;;5053190;28;20449;-80
2023/12/12 08:42:02;;;;;;;26.03;13.50;;;;;;;;;;5057654;28;20458;-79
2023/12/12 08:44:32;;;;;;;24.67;11.40;;;;;;;;;;5056607;28;20453;-79
2023/12/12 08:47:00;;;;;;;27.67;13.10;;;;;;;;;;5063136;28;20445;-79
2023/12/12 08:49:29;;;;;;;28.93;13.37;;;;;;;;;;5062793;28;20442;-78
2023/12/12 08:51:57;;;;;;;33.50;13.00;;;;;;;;;;5060540;28;20451;-80
2023/12/12 08:54:26;;;;;;;35.90;13.87;;;;;;;;;;5061120;28;20484;-80
2023/12/12 08:56:55;;;;;;;33.40;14.47;;;;;;;;;;5059087;28;20528;-76
2023/12/12 08:59:23;;;;;;;24.53;11.13;;;;;;;;;;5058902;28;20451;-79
2023/12/12 09:01:51;;;;;;;25.00;11.97;;;;;;;;;;5059626;28;20494;-80
2023/12/12 09:04:20;;;;;;;31.13;12.77;;;;;;;;;;5056968;28;20455;-79
2023/12/12 09:06:48;;;;;;;29.37;11.83;;;;;;;;;;5053945;28;20445;-79
2023/12/12 09:09:19;;;;;;;23.10;10.20;;;;;;;;;;5059011;28;20474;-81
2023/12/12 09:11:49;;;;;;;22.70;9.97;;;;;;;;;;5057670;28;20531;-80
2023/12/12 09:14:16;;;;;;;22.73;8.70;;;;;;;;;;5048733;28;20610;-74
2023/12/12 09:16:44;;;;;;;16.67;8.20;;;;;;;;;;5052919;28;20451;-80
2023/12/12 09:19:15;;;;;;;17.57;8.57;;;;;;;;;;5059963;28;20487;-81
2023/12/12 09:21:44;;;;;;;25.30;9.00;;;;;;;;;;5059788;28;20529;-79
2023/12/12 09:24:13;;;;;;;16.40;7.63;;;;;;;;;;5061998;28;20516;-79
2023/12/12 09:26:40;;;;;;;21.63;9.10;;;;;;;;;;5058801;28;20482;-78
2023/12/12 09:29:10;;;;;;;15.80;6.83;;;;;;;;;;5060226;28;20462;-81
2023/12/12 09:31:37;;;;;;;17.53;7.40;;;;;;;;;;5057786;28;20455;-79
2023/12/12 09:34:06;;;;;;;10.70;6.27;;;;;;;;;;5065253;28;20487;-78
2023/12/12 09:36:34;;;;;;;11.57;6.70;;;;;;;;;;5051950;28;20524;-80
2023/12/12 09:39:06;;;;;;;9.83;5.80;;;;;;;;;;5044689;28;20471;-78
2023/12/12 09:41:37;;;;;;;12.70;7.97;;;;;;;;;;5043841;28;20529;-80
2023/12/12 09:44:05;;;;;;;15.37;9.60;;;;;;;;;;5041992;28;20522;-80
2023/12/12 09:46:33;;;;;;;14.73;7.60;;;;;;;;;;5058646;28;20528;-79
2023/12/12 09:49:06;;;;;;;9.50;6.13;;;;;;;;;;5048334;28;20458;-80
2023/12/12 09:51:33;;;;;;;10.53;6.93;;;;;;;;;;5062440;28;20462;-81
2023/12/12 09:54:06;;;;;;;9.30;5.43;;;;;;;;;;5063926;28;20824;-79
2023/12/12 09:56:34;;;;;;;15.30;8.17;;;;;;;;;;5069243;28;20503;-81
2023/12/12 09:59:22;;;;;;;10.30;7.13;;;;;;;;;;5066207;28;20443;-80
2023/12/12 10:01:52;;;;;;;12.40;6.70;;;;;;;;;;5064965;28;20533;-79
2023/12/12 10:04:23;;;;;;;8.40;6.17;;;;;;;;;;5062862;28;20453;-80
2023/12/12 10:06:59;;;;;;;8.73;6.60;;;;;;;;;;5062518;28;20512;-79
2023/12/12 10:09:31;;;;;;;17.33;11.67;;;;;;;;;;5061170;28;20459;-79
2023/12/12 10:11:59;;;;;;;10.17;7.10;;;;;;;;;;5066566;28;20526;-79
2023/12/12 10:14:38;;;;;;;13.60;6.50;;;;;;;;;;5064486;28;20476;-78
2023/12/12 10:17:10;;;;;;;11.23;6.07;;;;;;;;;;5062753;28;20451;-79
2023/12/12 10:19:38;;;;;;;15.87;11.37;;;;;;;;;;5065314;28;20874;-78
2023/12/12 10:22:07;;;;;;;15.43;10.43;;;;;;;;;;5065073;28;20523;-78
2023/12/12 10:24:35;;;;;;;16.43;10.03;;;;;;;;;;5057510;28;20448;-79
2023/12/12 10:27:03;;;;;;;13.57;8.47;;;;;;;;;;5061372;28;20465;-76
2023/12/12 10:29:32;;;;;;;12.20;7.70;;;;;;;;;;5056885;28;20505;-78
2023/12/12 10:32:00;;;;;;;11.30;7.60;;;;;;;;;;5061532;28;20445;-79
2023/12/12 10:34:30;;;;;;;9.27;7.00;;;;;;;;;;5059211;28;20934;-78
2023/12/12 10:37:00;;;;;;;11.80;7.57;;;;;;;;;;5058443;28;20477;-78
2023/12/12 10:39:31;;;;;;;11.60;7.53;;;;;;;;;;5059374;28;20473;-78
2023/12/12 10:42:00;;;;;;;11.83;8.20;;;;;;;;;;5062132;28;20463;-79
2023/12/12 10:44:32;;;;;;;9.33;7.37;;;;;;;;;;5063689;28;20486;-78
2023/12/12 10:47:01;;;;;;;22.17;15.00;;;;;;;;;;5064745;28;20479;-79
2023/12/12 10:49:32;;;;;;;15.47;9.60;;;;;;;;;;5063022;28;20440;-79
2023/12/12 10:52:03;;;;;;;10.83;7.30;;;;;;;;;;5063238;28;20473;-78
2023/12/12 10:54:35;;;;;;;14.27;9.50;;;;;;;;;;5060471;28;20484;-77
2023/12/12 10:57:04;;;;;;;13.17;8.50;;;;;;;;;;5064451;28;20459;-78
2023/12/12 10:59:36;;;;;;;17.30;11.70;;;;;;;;;;5063498;28;20455;-78
2023/12/12 11:02:04;;;;;;;21.40;10.00;;;;;;;;;;5063423;28;20453;-78
2023/12/12 11:04:37;;;;;;;14.03;10.10;;;;;;;;;;5063834;28;20446;-78
2023/12/12 11:07:12;;;;;;;13.00;9.30;;;;;;;;;;5063053;28;20514;-78
2023/12/12 11:09:51;;;;;;;18.70;11.80;;;;;;;;;;5063281;28;20467;-77
2023/12/12 11:12:21;;;;;;;18.27;9.57;;;;;;;;;;5063858;28;20443;-78
2023/12/12 11:14:49;;;;;;;26.83;15.30;;;;;;;;;;5057110;28;20487;-79
2023/12/12 11:17:17;;;;;;;13.80;9.57;;;;;;;;;;5061202;28;20860;-78
2023/12/12 11:19:47;;;;;;;17.93;10.60;;;;;;;;;;5066347;28;20724;-78
2023/12/12 11:22:36;;;;;;;15.40;10.57;;;;;;;;;;5062741;28;20514;-78
2023/12/12 11:25:08;;;;;;;17.77;11.50;;;;;;;;;;5063342;28;20449;-78
2023/12/12 11:27:37;;;;;;;16.30;11.00;;;;;;;;;;5064172;28;20461;-78
2023/12/12 11:30:09;;;;;;;16.77;11.60;;;;;;;;;;5065750;28;20453;-80
2023/12/12 11:32:37;;;;;;;12.60;8.60;;;;;;;;;;5066493;28;20459;-80
2023/12/12 11:35:26;;;;;;;12.90;8.87;;;;;;;;;;5068533;28;20466;-79
2023/12/12 11:38:02;;;;;;;17.80;11.30;;;;;;;;;;5068574;28;20447;-80
2023/12/12 11:40:30;;;;;;;17.33;10.43;;;;;;;;;;5066971;28;20460;-78
2023/12/12 11:42:58;;;;;;;13.73;8.83;;;;;;;;;;5066505;28;20474;-78
2023/12/12 11:45:33;;;;;;;11.43;7.40;;;;;;;;;;5062236;28;20542;-78
2023/12/12 11:48:02;;;;;;;27.70;18.83;;;;;;;;;;5063027;28;20562;-79
2023/12/12 11:50:34;;;;;;;15.17;9.47;;;;;;;;;;5066108;28;20446;-78
2023/12/12 11:53:05;;;;;;;13.57;8.77;;;;;;;;;;5067065;28;20534;-78
2023/12/12 11:55:36;;;;;;;15.70;9.87;;;;;;;;;;5066496;28;20573;-79
2023/12/12 11:58:06;;;;;;;15.63;10.43;;;;;;;;;;5062006;28;20469;-79
2023/12/12 12:00:34;;;;;;;24.30;14.70;;;;;;;;;;5061226;28;20498;-78
2023/12/12 12:03:02;;;;;;;15.60;8.53;;;;;;;;;;5058454;28;20458;-78
2023/12/12 12:05:29;;;;;;;14.90;7.60;;;;;;;;;;5060865;28;20439;-79
2023/12/12 12:07:59;;;;;;;13.77;7.47;;;;;;;;;;5058286;28;20486;-79
2023/12/12 12:10:27;;;;;;;16.10;9.70;;;;;;;;;;5059093;28;20454;-78
2023/12/12 12:12:55;;;;;;;14.70;10.47;;;;;;;;;;5056889;28;20462;-77
2023/12/12 12:15:23;;;;;;;14.80;9.30;;;;;;;;;;5038530;28;20496;-79
2023/12/12 12:17:50;;;;;;;13.87;8.80;;;;;;;;;;5045071;28;20506;-78
2023/12/12 12:20:18;;;;;;;14.53;9.20;;;;;;;;;;5059275;28;20752;-79
2023/12/12 12:22:46;;;;;;;12.47;7.80;;;;;;;;;;5061464;28;20443;-79
2023/12/12 12:25:26;;;;;;;17.23;9.60;;;;;;;;;;5058205;28;20463;-79
2023/12/12 12:27:54;;;;;;;11.30;7.47;;;;;;;;;;5057004;28;20565;-78
2023/12/12 12:30:25;;;;;;;16.60;9.27;;;;;;;;;;5057687;28;20520;-79
2023/12/12 12:33:02;;;;;;;14.20;9.03;;;;;;;;;;5059180;28;20520;-78
2023/12/12 12:35:30;;;;;;;13.07;8.60;;;;;;;;;;5059229;28;20766;-79
2023/12/12 12:37:58;;;;;;;12.63;8.40;;;;;;;;;;5059279;28;20522;-79
2023/12/12 12:40:37;;;;;;;18.40;10.83;;;;;;;;;;5059488;28;20473;-79
2023/12/12 12:43:17;;;;;;;18.17;9.47;;;;;;;;;;5058901;28;20567;-79
2023/12/12 12:45:45;;;;;;;13.10;9.23;;;;;;;;;;5055103;28;20732;-79
2023/12/12 12:48:12;;;;;;;15.83;9.60;;;;;;;;;;5058642;28;20447;-78
2023/12/12 12:50:41;;;;;;;17.43;8.97;;;;;;;;;;5060522;28;20448;-77
2023/12/12 12:53:09;;;;;;;16.17;9.90;;;;;;;;;;5060107;28;20447;-77
2023/12/12 12:56:21;;;;;;;14.40;9.53;;;;;;;;;;5062000;28;20498;-79
2023/12/12 12:59:13;;;;;;;12.30;7.83;;;;;;;;;;5060201;28;20451;-78
2023/12/12 13:01:46;;;;;;;9.90;6.40;;;;;;;;;;5057642;28;20451;-80
2023/12/12 13:04:15;;;;;;;12.93;7.53;;;;;;;;;;5062375;28;20481;-79
2023/12/12 13:06:44;;;;;;;17.00;9.30;;;;;;;;;;5052751;28;20488;-77
2023/12/12 13:09:17;;;;;;;8.47;6.10;;;;;;;;;;5062250;28;20443;-79
2023/12/12 13:11:46;;;;;;;11.63;6.00;;;;;;;;;;5060910;28;20449;-78
2023/12/12 13:14:17;;;;;;;10.73;7.40;;;;;;;;;;5059831;28;20467;-79
2023/12/12 13:16:45;;;;;;;12.80;6.83;;;;;;;;;;5064770;28;20562;-80
2023/12/12 13:19:14;;;;;;;12.40;7.87;;;;;;;;;;5065532;28;20452;-80
2023/12/12 13:21:42;;;;;;;15.90;7.80;;;;;;;;;;5066057;28;20455;-78
2023/12/12 13:24:09;;;;;;;12.30;8.07;;;;;;;;;;5062390;28;20449;-78
2023/12/12 13:26:37;;;;;;;13.20;6.70;;;;;;;;;;5062834;28;20507;-78
2023/12/12 13:29:05;;;;;;;13.77;7.30;;;;;;;;;;5063898;28;20462;-80
2023/12/12 13:31:34;;;;;;;12.67;7.10;;;;;;;;;;5062864;28;20473;-79
2023/12/12 13:34:02;;;;;;;10.60;6.97;;;;;;;;;;5063504;28;20459;-79
2023/12/12 13:36:30;;;;;;;14.87;7.17;;;;;;;;;;5066815;28;20917;-79
2023/12/12 13:38:58;;;;;;;12.17;6.03;;;;;;;;;;5067136;28;20644;-79
2023/12/12 13:41:35;;;;;;;13.70;7.93;;;;;;;;;;5069756;28;20455;-79
2023/12/12 13:44:18;;;;;;;11.33;7.03;;;;;;;;;;5069530;28;20541;-79
2023/12/12 13:46:48;;;;;;;13.23;7.30;;;;;;;;;;5066745;28;20521;-79
2023/12/12 13:49:16;;;;;;;20.53;11.57;;;;;;;;;;5063912;28;20451;-80
2023/12/12 13:51:44;;;;;;;13.90;8.33;;;;;;;;;;5063976;28;20466;-79
2023/12/12 13:54:14;;;;;;;12.57;7.17;;;;;;;;;;5062256;28;20750;-79
2023/12/12 13:56:43;;;;;;;12.80;6.87;;;;;;;;;;5063135;28;20499;-81
2023/12/12 13:59:10;;;;;;;13.40;7.37;;;;;;;;;;5063684;28;20454;-79
2023/12/12 14:01:42;;;;;;;13.57;8.70;;;;;;;;;;5065115;28;20453;-81
2023/12/12 14:04:16;;;;;;;14.90;7.47;;;;;;;;;;5064131;28;20436;-79
2023/12/12 14:06:44;;;;;;;12.93;8.07;;;;;;;;;;5063419;28;20468;-80
2023/12/12 14:09:12;;;;;;;10.93;6.73;;;;;;;;;;5062196;28;20462;-78
2023/12/12 14:11:40;;;;;;;10.30;6.70;;;;;;;;;;5054085;28;20464;-78
2023/12/12 14:14:10;;;;;;;22.03;14.07;;;;;;;;;;5043817;28;20667;-78
2023/12/12 14:16:42;;;;;;;13.20;7.73;;;;;;;;;;5043923;28;20512;-79
2023/12/12 14:19:11;;;;;;;12.17;6.87;;;;;;;;;;5042984;28;20448;-78
2023/12/12 14:21:42;;;;;;;11.90;6.87;;;;;;;;;;5061881;28;20498;-78
2023/12/12 14:24:10;;;;;;;16.73;7.00;;;;;;;;;;5056493;28;20456;-80
2023/12/12 14:26:39;;;;;;;9.73;6.80;;;;;;;;;;5060779;28;20462;-80
2023/12/12 14:29:06;;;;;;;9.53;7.10;;;;;;;;;;5062803;28;20456;-79
2023/12/12 14:31:38;;;;;;;15.10;7.07;;;;;;;;;;5061110;28;21138;-79
2023/12/12 14:34:07;;;;;;;12.30;6.93;;;;;;;;;;5059836;28;20456;-79
2023/12/12 14:36:39;;;;;;;18.00;7.70;;;;;;;;;;5057065;28;20529;-79
2023/12/12 14:39:10;;;;;;;14.53;7.87;;;;;;;;;;5060522;28;20498;-80
2023/12/12 14:41:40;;;;;;;10.77;6.50;;;;;;;;;;5060946;28;20468;-80